Grays, South Carolina
Current Conditions -  °F | °C
As of 12:56 PM on Saturday 25 Oct 2014 (Local Time) from KNBC Reporting Station
Clear Clear  
Wind Chill: 73°   Ceiling: Unl
Heat Index: 73°   Visibility: 10mi
Dew Point: 48°   Wind: 6mph
Humidity: 41%   Direction: 330°NNW
Pressure: 30.01"   Gusts: NA
Location:  32.6221°N, 81.0484°W
Report Text: KNBC 251656Z AUTO 33005KT 10SM CLR 23/09 A3001 RMK AO2 SLP164 T02280089 $
Loading
Personal Weather Stations






























Interactive Weather Map
Tropical Storm Tracking
New forecast layout! Learn more

10-Day Weather Forecast

Advertisements
Track Severe Weather on mobile